sensor_id;sensor_type;location;lat;lon;timestamp;pressure;altitude;pressure_sealevel;temperature;humidity
48553;BME280;34335;51.566;6.994;2023-04-08T00:01:41;101572.94;;;5.94;100.00
48553;BME280;34335;51.566;6.994;2023-04-08T00:04:07;101578.09;;;6.21;100.00
48553;BME280;34335;51.566;6.994;2023-04-08T00:06:33;101576.16;;;6.14;100.00
48553;BME280;34335;51.566;6.994;2023-04-08T00:08:59;101574.56;;;5.90;100.00
48553;BME280;34335;51.566;6.994;2023-04-08T00:11:25;101571.56;;;5.78;100.00
48553;BME280;34335;51.566;6.994;2023-04-08T00:13:50;101574.84;;;5.74;100.00
48553;BME280;34335;51.566;6.994;2023-04-08T00:16:16;101578.38;;;6.02;100.00
48553;BME280;34335;51.566;6.994;2023-04-08T00:18:41;101581.09;;;5.81;100.00
48553;BME280;34335;51.566;6.994;2023-04-08T00:21:07;101584.22;;;5.70;100.00
48553;BME280;34335;51.566;6.994;2023-04-08T00:23:32;101573.03;;;5.70;100.00
48553;BME280;34335;51.566;6.994;2023-04-08T00:25:58;101579.78;;;5.66;100.00
48553;BME280;34335;51.566;6.994;2023-04-08T00:28:23;101581.84;;;5.76;100.00
48553;BME280;34335;51.566;6.994;2023-04-08T00:30:49;101587.38;;;5.61;100.00
48553;BME280;34335;51.566;6.994;2023-04-08T00:33:15;101587.25;;;5.58;100.00
48553;BME280;34335;51.566;6.994;2023-04-08T00:35:40;101590.25;;;5.45;100.00
48553;BME280;34335;51.566;6.994;2023-04-08T00:38:06;101589.19;;;5.38;100.00
48553;BME280;34335;51.566;6.994;2023-04-08T00:40:33;101591.59;;;5.34;100.00
48553;BME280;34335;51.566;6.994;2023-04-08T00:42:58;101588.63;;;5.49;100.00
48553;BME280;34335;51.566;6.994;2023-04-08T00:45:24;101588.75;;;5.52;100.00
48553;BME280;34335;51.566;6.994;2023-04-08T00:47:50;101587.88;;;5.51;100.00
48553;BME280;34335;51.566;6.994;2023-04-08T00:50:17;101589.03;;;5.34;100.00
48553;BME280;34335;51.566;6.994;2023-04-08T00:52:43;101590.59;;;5.30;100.00
48553;BME280;34335;51.566;6.994;2023-04-08T00:55:08;101586.31;;;5.56;100.00
48553;BME280;34335;51.566;6.994;2023-04-08T00:57:34;101588.41;;;5.41;100.00
48553;BME280;34335;51.566;6.994;2023-04-08T01:00:01;101589.78;;;5.07;100.00
48553;BME280;34335;51.566;6.994;2023-04-08T01:02:38;101595.25;;;5.16;100.00
48553;BME280;34335;51.566;6.994;2023-04-08T01:05:29;101594.72;;;5.01;100.00
48553;BME280;34335;51.566;6.994;2023-04-08T01:08:04;101595.88;;;5.09;100.00
48553;BME280;34335;51.566;6.994;2023-04-08T01:10:33;101588.66;;;5.24;100.00
48553;BME280;34335;51.566;6.994;2023-04-08T01:13:03;101592.81;;;5.19;100.00
48553;BME280;34335;51.566;6.994;2023-04-08T01:15:30;101597.91;;;5.18;100.00
48553;BME280;34335;51.566;6.994;2023-04-08T01:17:58;101592.31;;;5.05;100.00
48553;BME280;34335;51.566;6.994;2023-04-08T01:20:26;101594.69;;;5.23;100.00
48553;BME280;34335;51.566;6.994;2023-04-08T01:25:25;101587.75;;;4.98;100.00
48553;BME280;34335;51.566;6.994;2023-04-08T01:27:52;101595.34;;;4.71;100.00
48553;BME280;34335;51.566;6.994;2023-04-08T01:30:22;101604.88;;;4.73;100.00
48553;BME280;34335;51.566;6.994;2023-04-08T01:32:49;101608.91;;;4.66;100.00
48553;BME280;34335;51.566;6.994;2023-04-08T01:35:17;101604.38;;;4.82;100.00
48553;BME280;34335;51.566;6.994;2023-04-08T01:37:44;101614.06;;;4.66;100.00
48553;BME280;34335;51.566;6.994;2023-04-08T01:40:11;101614.78;;;4.85;100.00
48553;BME280;34335;51.566;6.994;2023-04-08T01:42:38;101606.81;;;4.79;100.00
48553;BME280;34335;51.566;6.994;2023-04-08T01:45:04;101593.84;;;4.53;100.00
48553;BME280;34335;51.566;6.994;2023-04-08T01:47:30;101611.53;;;4.44;100.00
48553;BME280;34335;51.566;6.994;2023-04-08T01:49:56;101607.81;;;4.82;100.00
48553;BME280;34335;51.566;6.994;2023-04-08T01:52:24;101603.91;;;4.70;100.00
48553;BME280;34335;51.566;6.994;2023-04-08T01:54:51;101616.06;;;4.51;100.00
48553;BME280;34335;51.566;6.994;2023-04-08T01:57:25;101615.78;;;4.43;100.00
48553;BME280;34335;51.566;6.994;2023-04-08T01:59:52;101610.41;;;4.60;100.00
48553;BME280;34335;51.566;6.994;2023-04-08T02:02:21;101610.63;;;4.43;100.00
48553;BME280;34335;51.566;6.994;2023-04-08T02:04:50;101608.44;;;4.31;100.00
48553;BME280;34335;51.566;6.994;2023-04-08T02:07:16;101606.41;;;4.23;100.00
48553;BME280;34335;51.566;6.994;2023-04-08T02:09:42;101613.28;;;4.24;100.00
48553;BME280;34335;51.566;6.994;2023-04-08T02:12:07;101609.97;;;4.26;100.00
48553;BME280;34335;51.566;6.994;2023-04-08T02:14:33;101610.31;;;4.13;100.00
48553;BME280;34335;51.566;6.994;2023-04-08T02:17:06;101614.94;;;4.00;100.00
48553;BME280;34335;51.566;6.994;2023-04-08T02:22:30;101615.31;;;4.10;100.00
48553;BME280;34335;51.566;6.994;2023-04-08T02:25:03;101621.75;;;3.98;100.00
48553;BME280;34335;51.566;6.994;2023-04-08T02:27:33;101613.69;;;4.12;100.00
48553;BME280;34335;51.566;6.994;2023-04-08T02:30:02;101621.38;;;4.10;100.00
48553;BME280;34335;51.566;6.994;2023-04-08T02:32:30;101623.88;;;4.09;100.00
48553;BME280;34335;51.566;6.994;2023-04-08T02:34:58;101623.22;;;4.14;100.00
48553;BME280;34335;51.566;6.994;2023-04-08T02:37:23;101627.94;;;4.03;100.00
48553;BME280;34335;51.566;6.994;2023-04-08T02:39:49;101627.78;;;3.99;100.00
48553;BME280;34335;51.566;6.994;2023-04-08T02:42:14;101629.84;;;4.08;100.00
48553;BME280;34335;51.566;6.994;2023-04-08T02:44:40;101629.66;;;4.03;100.00
48553;BME280;34335;51.566;6.994;2023-04-08T02:47:05;101627.66;;;4.17;100.00
48553;BME280;34335;51.566;6.994;2023-04-08T02:49:30;101631.53;;;4.07;100.00
48553;BME280;34335;51.566;6.994;2023-04-08T02:51:56;101628.94;;;4.07;100.00
48553;BME280;34335;51.566;6.994;2023-04-08T02:54:21;101628.53;;;3.96;100.00
48553;BME280;34335;51.566;6.994;2023-04-08T02:56:46;101632.53;;;3.89;100.00
48553;BME280;34335;51.566;6.994;2023-04-08T02:59:12;101632.69;;;3.93;100.00
48553;BME280;34335;51.566;6.994;2023-04-08T03:01:37;101629.03;;;4.09;100.00
48553;BME280;34335;51.566;6.994;2023-04-08T03:04:02;101630.28;;;3.97;100.00
48553;BME280;34335;51.566;6.994;2023-04-08T03:06:28;101636.31;;;3.98;100.00
48553;BME280;34335;51.566;6.994;2023-04-08T03:08:53;101638.06;;;3.99;100.00
48553;BME280;34335;51.566;6.994;2023-04-08T03:11:18;101632.91;;;3.99;100.00
48553;BME280;34335;51.566;6.994;2023-04-08T03:13:43;101642.41;;;4.00;100.00
48553;BME280;34335;51.566;6.994;2023-04-08T03:16:10;101640.69;;;4.00;100.00
48553;BME280;34335;51.566;6.994;2023-04-08T03:18:36;101633.06;;;4.02;100.00
48553;BME280;34335;51.566;6.994;2023-04-08T03:21:01;101639.06;;;4.02;100.00
48553;BME280;34335;51.566;6.994;2023-04-08T03:23:27;101634.19;;;4.09;100.00
48553;BME280;34335;51.566;6.994;2023-04-08T03:25:52;101641.78;;;4.05;100.00
48553;BME280;34335;51.566;6.994;2023-04-08T03:28:18;101645.09;;;4.03;100.00
48553;BME280;34335;51.566;6.994;2023-04-08T03:30:43;101642.53;;;4.03;100.00
48553;BME280;34335;51.566;6.994;2023-04-08T03:33:08;101653.69;;;4.03;100.00
48553;BME280;34335;51.566;6.994;2023-04-08T03:35:33;101642.59;;;4.04;100.00
48553;BME280;34335;51.566;6.994;2023-04-08T03:37:59;101645.03;;;4.01;100.00
48553;BME280;34335;51.566;6.994;2023-04-08T03:40:25;101652.75;;;4.01;100.00
48553;BME280;34335;51.566;6.994;2023-04-08T03:42:50;101651.88;;;4.01;100.00
48553;BME280;34335;51.566;6.994;2023-04-08T03:45:15;101652.84;;;4.03;100.00
48553;BME280;34335;51.566;6.994;2023-04-08T03:47:41;101648.47;;;3.81;100.00
48553;BME280;34335;51.566;6.994;2023-04-08T03:50:06;101658.09;;;3.85;100.00
48553;BME280;34335;51.566;6.994;2023-04-08T03:52:32;101652.25;;;3.89;100.00
48553;BME280;34335;51.566;6.994;2023-04-08T03:54:57;101656.50;;;3.88;100.00
48553;BME280;34335;51.566;6.994;2023-04-08T03:57:22;101657.31;;;3.87;100.00
48553;BME280;34335;51.566;6.994;2023-04-08T03:59:48;101659.97;;;3.89;100.00
48553;BME280;34335;51.566;6.994;2023-04-08T04:02:13;101652.25;;;3.89;100.00
48553;BME280;34335;51.566;6.994;2023-04-08T04:04:38;101653.94;;;3.88;100.00
48553;BME280;34335;51.566;6.994;2023-04-08T04:07:03;101653.00;;;3.86;100.00
48553;BME280;34335;51.566;6.994;2023-04-08T04:09:29;101658.09;;;3.85;100.00
48553;BME280;34335;51.566;6.994;2023-04-08T04:11:54;101651.97;;;3.83;100.00
48553;BME280;34335;51.566;6.994;2023-04-08T04:14:20;101660.22;;;3.95;100.00
48553;BME280;34335;51.566;6.994;2023-04-08T04:16:45;101659.03;;;3.87;100.00
48553;BME280;34335;51.566;6.994;2023-04-08T04:19:10;101653.31;;;3.73;100.00
48553;BME280;34335;51.566;6.994;2023-04-08T04:21:35;101659.47;;;3.77;100.00
48553;BME280;34335;51.566;6.994;2023-04-08T04:24:01;101667.22;;;3.78;100.00
48553;BME280;34335;51.566;6.994;2023-04-08T04:26:26;101681.19;;;3.83;100.00
48553;BME280;34335;51.566;6.994;2023-04-08T04:28:51;101676.03;;;3.83;100.00
48553;BME280;34335;51.566;6.994;2023-04-08T04:31:21;101670.63;;;3.77;100.00
48553;BME280;34335;51.566;6.994;2023-04-08T04:33:48;101668.56;;;3.68;100.00
48553;BME280;34335;51.566;6.994;2023-04-08T04:36:14;101665.56;;;3.79;100.00
48553;BME280;34335;51.566;6.994;2023-04-08T04:38:39;101670.16;;;3.66;100.00
48553;BME280;34335;51.566;6.994;2023-04-08T04:41:05;101672.00;;;3.69;100.00
48553;BME280;34335;51.566;6.994;2023-04-08T04:43:30;101678.94;;;3.71;100.00
48553;BME280;34335;51.566;6.994;2023-04-08T04:45:55;101679.84;;;3.72;100.00
48553;BME280;34335;51.566;6.994;2023-04-08T04:48:21;101676.38;;;3.71;100.00
48553;BME280;34335;51.566;6.994;2023-04-08T04:50:59;101681.53;;;3.71;100.00
48553;BME280;34335;51.566;6.994;2023-04-08T04:53:29;101687.09;;;3.61;100.00
48553;BME280;34335;51.566;6.994;2023-04-08T04:55:54;101684.59;;;3.63;100.00
48553;BME280;34335;51.566;6.994;2023-04-08T04:58:20;101689.75;;;3.63;100.00
48553;BME280;34335;51.566;6.994;2023-04-08T05:00:45;101694.00;;;3.62;100.00
48553;BME280;34335;51.566;6.994;2023-04-08T05:03:11;101693.13;;;3.62;100.00
48553;BME280;34335;51.566;6.994;2023-04-08T05:05:36;101697.38;;;3.61;100.00
48553;BME280;34335;51.566;6.994;2023-04-08T05:08:02;101699.03;;;3.59;100.00
48553;BME280;34335;51.566;6.994;2023-04-08T05:10:27;101696.38;;;3.57;100.00
48553;BME280;34335;51.566;6.994;2023-04-08T05:12:52;101704.03;;;3.56;100.00
48553;BME280;34335;51.566;6.994;2023-04-08T05:15:17;101706.53;;;3.54;100.00
48553;BME280;34335;51.566;6.994;2023-04-08T05:17:43;101702.13;;;3.52;100.00
48553;BME280;34335;51.566;6.994;2023-04-08T05:20:08;101708.00;;;3.49;100.00
48553;BME280;34335;51.566;6.994;2023-04-08T05:22:34;101721.69;;;3.48;100.00
48553;BME280;34335;51.566;6.994;2023-04-08T05:24:59;101719.91;;;3.47;100.00
48553;BME280;34335;51.566;6.994;2023-04-08T05:27:25;101709.63;;;3.47;100.00
48553;BME280;34335;51.566;6.994;2023-04-08T05:29:50;101716.28;;;3.42;100.00
48553;BME280;34335;51.566;6.994;2023-04-08T05:32:15;101711.13;;;3.42;100.00
48553;BME280;34335;51.566;6.994;2023-04-08T05:34:41;101723.94;;;3.40;100.00
48553;BME280;34335;51.566;6.994;2023-04-08T05:37:06;101726.50;;;3.40;100.00
48553;BME280;34335;51.566;6.994;2023-04-08T05:39:32;101722.22;;;3.41;100.00
48553;BME280;34335;51.566;6.994;2023-04-08T05:41:57;101722.16;;;3.39;100.00
48553;BME280;34335;51.566;6.994;2023-04-08T05:44:22;101727.16;;;3.36;100.00
48553;BME280;34335;51.566;6.994;2023-04-08T05:46:47;101721.88;;;3.33;100.00
48553;BME280;34335;51.566;6.994;2023-04-08T05:49:13;101727.16;;;3.36;100.00
48553;BME280;34335;51.566;6.994;2023-04-08T05:51:38;101729.88;;;3.39;100.00
48553;BME280;34335;51.566;6.994;2023-04-08T05:54:04;101734.63;;;3.50;100.00
48553;BME280;34335;51.566;6.994;2023-04-08T05:56:29;101738.69;;;3.64;100.00
48553;BME280;34335;51.566;6.994;2023-04-08T05:58:56;101733.78;;;3.70;100.00
48553;BME280;34335;51.566;6.994;2023-04-08T06:01:21;101739.81;;;3.32;100.00
48553;BME280;34335;51.566;6.994;2023-04-08T06:03:47;101748.81;;;3.22;100.00
48553;BME280;34335;51.566;6.994;2023-04-08T06:06:12;101753.28;;;3.26;100.00
48553;BME280;34335;51.566;6.994;2023-04-08T06:08:38;101762.31;;;3.36;100.00
48553;BME280;34335;51.566;6.994;2023-04-08T06:11:03;101765.94;;;3.41;100.00
48553;BME280;34335;51.566;6.994;2023-04-08T06:13:30;101768.13;;;3.51;100.00
48553;BME280;34335;51.566;6.994;2023-04-08T06:15:55;101763.13;;;3.54;100.00
48553;BME280;34335;51.566;6.994;2023-04-08T06:18:21;101762.53;;;3.60;100.00
48553;BME280;34335;51.566;6.994;2023-04-08T06:20:46;101766.50;;;3.73;100.00
48553;BME280;34335;51.566;6.994;2023-04-08T06:23:12;101771.16;;;3.82;100.00
48553;BME280;34335;51.566;6.994;2023-04-08T06:25:37;101774.56;;;3.81;100.00
48553;BME280;34335;51.566;6.994;2023-04-08T06:28:02;101780.66;;;3.83;100.00
48553;BME280;34335;51.566;6.994;2023-04-08T06:30:28;101773.88;;;3.85;100.00
48553;BME280;34335;51.566;6.994;2023-04-08T06:32:53;101775.69;;;4.07;100.00
48553;BME280;34335;51.566;6.994;2023-04-08T06:35:19;101768.09;;;3.69;100.00
48553;BME280;34335;51.566;6.994;2023-04-08T06:37:44;101769.69;;;3.67;100.00
48553;BME280;34335;51.566;6.994;2023-04-08T06:40:09;101766.97;;;3.84;100.00
48553;BME280;34335;51.566;6.994;2023-04-08T06:42:35;101763.44;;;3.82;100.00
48553;BME280;34335;51.566;6.994;2023-04-08T06:45:03;101774.63;;;3.82;100.00
48553;BME280;34335;51.566;6.994;2023-04-08T06:47:28;101781.75;;;3.88;100.00
48553;BME280;34335;51.566;6.994;2023-04-08T06:49:53;101778.97;;;4.03;100.00
48553;BME280;34335;51.566;6.994;2023-04-08T06:52:19;101785.13;;;4.07;100.00
48553;BME280;34335;51.566;6.994;2023-04-08T06:54:44;101788.50;;;4.05;100.00
48553;BME280;34335;51.566;6.994;2023-04-08T06:57:10;101793.69;;;4.27;100.00
48553;BME280;34335;51.566;6.994;2023-04-08T06:59:35;101786.28;;;4.56;100.00
48553;BME280;34335;51.566;6.994;2023-04-08T07:02:01;101793.31;;;4.39;100.00
48553;BME280;34335;51.566;6.994;2023-04-08T07:04:26;101792.25;;;4.33;100.00
48553;BME280;34335;51.566;6.994;2023-04-08T07:06:52;101802.28;;;4.47;100.00
48553;BME280;34335;51.566;6.994;2023-04-08T07:09:17;101801.00;;;4.58;100.00
48553;BME280;34335;51.566;6.994;2023-04-08T07:11:42;101803.56;;;4.58;100.00
48553;BME280;34335;51.566;6.994;2023-04-08T07:14:08;101803.91;;;4.66;100.00
48553;BME280;34335;51.566;6.994;2023-04-08T07:16:33;101808.84;;;5.04;100.00
48553;BME280;34335;51.566;6.994;2023-04-08T07:18:58;101820.59;;;4.97;100.00
48553;BME280;34335;51.566;6.994;2023-04-08T07:21:23;101826.16;;;4.85;100.00
48553;BME280;34335;51.566;6.994;2023-04-08T07:23:49;101824.41;;;5.07;100.00
48553;BME280;34335;51.566;6.994;2023-04-08T07:26:15;101818.34;;;5.05;100.00
48553;BME280;34335;51.566;6.994;2023-04-08T07:28:40;101820.06;;;5.06;100.00
48553;BME280;34335;51.566;6.994;2023-04-08T07:31:16;101818.94;;;5.20;100.00
48553;BME280;34335;51.566;6.994;2023-04-08T07:33:42;101816.25;;;5.40;100.00
48553;BME280;34335;51.566;6.994;2023-04-08T07:36:09;101821.63;;;5.46;100.00
48553;BME280;34335;51.566;6.994;2023-04-08T07:38:35;101828.41;;;5.44;100.00
48553;BME280;34335;51.566;6.994;2023-04-08T07:41:00;101820.13;;;5.51;100.00
48553;BME280;34335;51.566;6.994;2023-04-08T07:43:26;101820.81;;;5.70;100.00
48553;BME280;34335;51.566;6.994;2023-04-08T07:45:51;101822.22;;;5.61;100.00
48553;BME280;34335;51.566;6.994;2023-04-08T07:48:16;101822.22;;;5.61;100.00
48553;BME280;34335;51.566;6.994;2023-04-08T07:50:42;101822.16;;;5.84;100.00
48553;BME280;34335;51.566;6.994;2023-04-08T07:53:07;101819.50;;;5.81;100.00
48553;BME280;34335;51.566;6.994;2023-04-08T07:55:34;101824.88;;;5.87;100.00
48553;BME280;34335;51.566;6.994;2023-04-08T07:57:59;101829.78;;;6.04;100.00
48553;BME280;34335;51.566;6.994;2023-04-08T08:00:25;101835.25;;;6.12;100.00
48553;BME280;34335;51.566;6.994;2023-04-08T08:02:50;101836.44;;;6.21;100.00
48553;BME280;34335;51.566;6.994;2023-04-08T08:05:16;101850.63;;;6.08;100.00
48553;BME280;34335;51.566;6.994;2023-04-08T08:07:41;101849.34;;;6.21;100.00
48553;BME280;34335;51.566;6.994;2023-04-08T08:10:07;101845.22;;;6.27;100.00
48553;BME280;34335;51.566;6.994;2023-04-08T08:12:33;101858.31;;;6.31;100.00
48553;BME280;34335;51.566;6.994;2023-04-08T08:14:58;101861.25;;;6.42;100.00
48553;BME280;34335;51.566;6.994;2023-04-08T08:17:24;101858.75;;;6.44;100.00
48553;BME280;34335;51.566;6.994;2023-04-08T08:19:49;101854.88;;;6.57;100.00
48553;BME280;34335;51.566;6.994;2023-04-08T08:22:15;101860.25;;;6.63;100.00
48553;BME280;34335;51.566;6.994;2023-04-08T08:24:40;101861.88;;;6.61;100.00
48553;BME280;34335;51.566;6.994;2023-04-08T08:27:05;101859.09;;;6.80;100.00
48553;BME280;34335;51.566;6.994;2023-04-08T08:29:31;101857.56;;;6.85;100.00
48553;BME280;34335;51.566;6.994;2023-04-08T08:31:56;101860.88;;;7.09;100.00
48553;BME280;34335;51.566;6.994;2023-04-08T08:34:22;101865.44;;;7.17;100.00
48553;BME280;34335;51.566;6.994;2023-04-08T08:36:47;101863.81;;;7.20;100.00
48553;BME280;34335;51.566;6.994;2023-04-08T08:39:13;101872.22;;;7.12;100.00
48553;BME280;34335;51.566;6.994;2023-04-08T08:41:38;101864.56;;;7.15;100.00
48553;BME280;34335;51.566;6.994;2023-04-08T08:44:05;101864.09;;;7.29;100.00
48553;BME280;34335;51.566;6.994;2023-04-08T08:46:31;101878.00;;;7.32;100.00
48553;BME280;34335;51.566;6.994;2023-04-08T08:48:57;101872.69;;;7.28;100.00
48553;BME280;34335;51.566;6.994;2023-04-08T08:51:23;101884.09;;;7.35;100.00
48553;BME280;34335;51.566;6.994;2023-04-08T08:53:48;101881.41;;;7.31;100.00
48553;BME280;34335;51.566;6.994;2023-04-08T08:56:13;101887.44;;;7.30;100.00
48553;BME280;34335;51.566;6.994;2023-04-08T08:58:39;101884.28;;;7.41;100.00
48553;BME280;34335;51.566;6.994;2023-04-08T09:01:30;101880.88;;;7.71;100.00
48553;BME280;34335;51.566;6.994;2023-04-08T09:06:35;101886.19;;;7.75;100.00
48553;BME280;34335;51.566;6.994;2023-04-08T09:09:00;101887.13;;;7.77;100.00
48553;BME280;34335;51.566;6.994;2023-04-08T09:11:26;101895.25;;;7.90;100.00
48553;BME280;34335;51.566;6.994;2023-04-08T09:13:52;101899.22;;;8.07;100.00
48553;BME280;34335;51.566;6.994;2023-04-08T09:16:18;101899.81;;;8.29;100.00
48553;BME280;34335;51.566;6.994;2023-04-08T09:18:45;101903.66;;;8.43;100.00
48553;BME280;34335;51.566;6.994;2023-04-08T09:21:12;101895.16;;;8.48;100.00
48553;BME280;34335;51.566;6.994;2023-04-08T09:23:38;101900.75;;;8.63;100.00
48553;BME280;34335;51.566;6.994;2023-04-08T09:26:09;101890.78;;;8.79;100.00
48553;BME280;34335;51.566;6.994;2023-04-08T09:28:35;101884.56;;;8.72;100.00
48553;BME280;34335;51.566;6.994;2023-04-08T09:31:00;101891.41;;;8.70;100.00
48553;BME280;34335;51.566;6.994;2023-04-08T09:33:41;101894.50;;;8.90;100.00
48553;BME280;34335;51.566;6.994;2023-04-08T09:36:06;101891.38;;;9.03;100.00
48553;BME280;34335;51.566;6.994;2023-04-08T09:38:32;101891.59;;;9.13;100.00
48553;BME280;34335;51.566;6.994;2023-04-08T09:40:57;101895.03;;;9.12;100.00
48553;BME280;34335;51.566;6.994;2023-04-08T09:43:23;101891.81;;;9.22;100.00
48553;BME280;34335;51.566;6.994;2023-04-08T09:45:51;101897.09;;;9.25;100.00
48553;BME280;34335;51.566;6.994;2023-04-08T09:48:19;101893.66;;;9.26;100.00
48553;BME280;34335;51.566;6.994;2023-04-08T09:50:49;101897.31;;;9.34;100.00
48553;BME280;34335;51.566;6.994;2023-04-08T09:53:19;101893.47;;;9.18;100.00
48553;BME280;34335;51.566;6.994;2023-04-08T09:55:52;101899.25;;;9.07;100.00
48553;BME280;34335;51.566;6.994;2023-04-08T09:58:21;101897.22;;;9.31;100.00
48553;BME280;34335;51.566;6.994;2023-04-08T10:00:53;101897.25;;;9.33;100.00
48553;BME280;34335;51.566;6.994;2023-04-08T10:03:22;101900.84;;;9.38;100.00
48553;BME280;34335;51.566;6.994;2023-04-08T10:05:52;101897.34;;;9.36;100.00
48553;BME280;34335;51.566;6.994;2023-04-08T10:08:18;101895.63;;;9.37;100.00
48553;BME280;34335;51.566;6.994;2023-04-08T10:10:44;101893.16;;;9.41;100.00
48553;BME280;34335;51.566;6.994;2023-04-08T10:13:10;101887.91;;;9.40;100.00
48553;BME280;34335;51.566;6.994;2023-04-08T10:15:36;101898.25;;;9.38;100.00
48553;BME280;34335;51.566;6.994;2023-04-08T10:23:01;101904.25;;;9.35;100.00
48553;BME280;34335;51.566;6.994;2023-04-08T10:25:33;101901.03;;;9.46;100.00
48553;BME280;34335;51.566;6.994;2023-04-08T10:30:56;101914.66;;;9.35;100.00
48553;BME280;34335;51.566;6.994;2023-04-08T10:35:52;101906.44;;;9.55;100.00
48553;BME280;34335;51.566;6.994;2023-04-08T10:38:18;101902.91;;;9.51;100.00
48553;BME280;34335;51.566;6.994;2023-04-08T10:40:44;101902.91;;;9.51;100.00
48553;BME280;34335;51.566;6.994;2023-04-08T10:43:12;101896.19;;;9.61;100.00
48553;BME280;34335;51.566;6.994;2023-04-08T10:45:41;101905.22;;;9.79;100.00
48553;BME280;34335;51.566;6.994;2023-04-08T10:48:23;101901.66;;;9.75;100.00
48553;BME280;34335;51.566;6.994;2023-04-08T10:50:54;101905.13;;;9.74;100.00
48553;BME280;34335;51.566;6.994;2023-04-08T10:53:37;101899.91;;;9.73;100.00
48553;BME280;34335;51.566;6.994;2023-04-08T10:56:03;101900.00;;;9.79;100.00
48553;BME280;34335;51.566;6.994;2023-04-08T10:58:30;101894.91;;;9.82;100.00
48553;BME280;34335;51.566;6.994;2023-04-08T11:01:05;101899.06;;;9.74;100.00
48553;BME280;34335;51.566;6.994;2023-04-08T11:03:32;101897.81;;;9.97;100.00
48553;BME280;34335;51.566;6.994;2023-04-08T11:06:01;101894.44;;;10.02;100.00
48553;BME280;34335;51.566;6.994;2023-04-08T11:08:30;101904.84;;;10.03;100.00
48553;BME280;34335;51.566;6.994;2023-04-08T11:11:03;101893.41;;;9.93;100.00
48553;BME280;34335;51.566;6.994;2023-04-08T11:13:30;101889.41;;;10.11;100.00
48553;BME280;34335;51.566;6.994;2023-04-08T11:15:57;101892.13;;;10.17;100.00
48553;BME280;34335;51.566;6.994;2023-04-08T11:18:23;101893.38;;;10.36;100.00
48553;BME280;34335;51.566;6.994;2023-04-08T11:20:50;101887.63;;;10.51;100.00
48553;BME280;34335;51.566;6.994;2023-04-08T11:23:16;101884.44;;;10.69;100.00
48553;BME280;34335;51.566;6.994;2023-04-08T11:25:42;101883.66;;;10.73;100.00
48553;BME280;34335;51.566;6.994;2023-04-08T11:28:10;101886.34;;;10.78;100.00
48553;BME280;34335;51.566;6.994;2023-04-08T11:30:55;101886.66;;;10.98;100.00
48553;BME280;34335;51.566;6.994;2023-04-08T11:33:24;101888.47;;;11.01;100.00
48553;BME280;34335;51.566;6.994;2023-04-08T11:35:50;101887.66;;;11.06;100.00
48553;BME280;34335;51.566;6.994;2023-04-08T11:38:16;101878.81;;;11.52;100.00
48553;BME280;34335;51.566;6.994;2023-04-08T11:41:00;101881.41;;;11.52;100.00
48553;BME280;34335;51.566;6.994;2023-04-08T11:43:25;101883.84;;;11.41;100.00
48553;BME280;34335;51.566;6.994;2023-04-08T11:45:51;101887.59;;;11.62;100.00
48553;BME280;34335;51.566;6.994;2023-04-08T11:48:17;101883.91;;;11.46;100.00
48553;BME280;34335;51.566;6.994;2023-04-08T11:50:43;101885.84;;;11.61;100.00
48553;BME280;34335;51.566;6.994;2023-04-08T11:53:19;101886.72;;;11.60;100.00
48553;BME280;34335;51.566;6.994;2023-04-08T11:55:45;101880.88;;;11.79;100.00
48553;BME280;34335;51.566;6.994;2023-04-08T11:58:11;101891.47;;;11.93;100.00
48553;BME280;34335;51.566;6.994;2023-04-08T12:00:36;101893.31;;;11.99;100.00
48553;BME280;34335;51.566;6.994;2023-04-08T12:03:02;101893.28;;;11.96;100.00
48553;BME280;34335;51.566;6.994;2023-04-08T12:05:28;101905.41;;;11.94;100.00
48553;BME280;34335;51.566;6.994;2023-04-08T12:07:53;101901.06;;;11.93;100.00
48553;BME280;34335;51.566;6.994;2023-04-08T12:10:18;101907.16;;;11.32;100.00
48553;BME280;34335;51.566;6.994;2023-04-08T12:12:43;101906.44;;;11.42;100.00
48553;BME280;34335;51.566;6.994;2023-04-08T12:15:09;101899.97;;;11.75;100.00
48553;BME280;34335;51.566;6.994;2023-04-08T12:17:35;101897.75;;;12.03;100.00
48553;BME280;34335;51.566;6.994;2023-04-08T12:20:03;101906.47;;;12.08;100.00
48553;BME280;34335;51.566;6.994;2023-04-08T12:22:28;101905.63;;;12.08;100.00
48553;BME280;34335;51.566;6.994;2023-04-08T12:24:54;101898.44;;;11.94;100.00
48553;BME280;34335;51.566;6.994;2023-04-08T12:27:19;101905.19;;;11.75;100.00
48553;BME280;34335;51.566;6.994;2023-04-08T12:29:44;101909.72;;;11.90;100.00
48553;BME280;34335;51.566;6.994;2023-04-08T12:32:10;101909.09;;;12.08;100.00
48553;BME280;34335;51.566;6.994;2023-04-08T12:34:36;101904.81;;;12.13;100.00
48553;BME280;34335;51.566;6.994;2023-04-08T12:37:01;101894.44;;;12.17;100.00
48553;BME280;34335;51.566;6.994;2023-04-08T12:39:26;101899.72;;;12.24;100.00
48553;BME280;34335;51.566;6.994;2023-04-08T12:41:52;101892.69;;;12.19;100.00
48553;BME280;34335;51.566;6.994;2023-04-08T12:44:17;101893.72;;;12.33;100.00
48553;BME280;34335;51.566;6.994;2023-04-08T12:46:43;101890.28;;;12.34;100.00
48553;BME280;34335;51.566;6.994;2023-04-08T12:49:08;101894.63;;;12.35;100.00
48553;BME280;34335;51.566;6.994;2023-04-08T12:51:34;101898.28;;;12.53;100.00
48553;BME280;34335;51.566;6.994;2023-04-08T12:54:00;101902.47;;;12.35;100.00
48553;BME280;34335;51.566;6.994;2023-04-08T12:56:27;101898.88;;;12.27;100.00
48553;BME280;34335;51.566;6.994;2023-04-08T12:58:53;101891.13;;;12.36;100.00
48553;BME280;34335;51.566;6.994;2023-04-08T13:01:19;101888.63;;;12.44;100.00
48553;BME280;34335;51.566;6.994;2023-04-08T13:03:45;101891.41;;;12.61;100.00